sensor_id;sensor_type;location;lat;lon;timestamp;P1;durP1;ratioP1;P2;durP2;ratioP2
12222;SDS011;6174;49.058;8.524;2024-02-26T06:00:19;0.77;;;0.77;;
12222;SDS011;6174;49.058;8.524;2024-02-26T06:02:46;1.53;;;0.80;;
12222;SDS011;6174;49.058;8.524;2024-02-26T06:05:13;0.90;;;0.90;;
12222;SDS011;6174;49.058;8.524;2024-02-26T06:07:40;1.00;;;1.00;;
12222;SDS011;6174;49.058;8.524;2024-02-26T06:10:07;0.80;;;0.80;;
12222;SDS011;6174;49.058;8.524;2024-02-26T06:12:35;1.00;;;1.00;;
12222;SDS011;6174;49.058;8.524;2024-02-26T06:15:02;1.20;;;1.10;;
12222;SDS011;6174;49.058;8.524;2024-02-26T06:17:30;1.30;;;1.20;;
12222;SDS011;6174;49.058;8.524;2024-02-26T06:19:57;1.40;;;1.30;;
12222;SDS011;6174;49.058;8.524;2024-02-26T06:22:25;1.43;;;1.33;;
12222;SDS011;6174;49.058;8.524;2024-02-26T06:24:51;1.40;;;1.30;;
12222;SDS011;6174;49.058;8.524;2024-02-26T06:27:18;1.73;;;1.63;;
12222;SDS011;6174;49.058;8.524;2024-02-26T06:29:46;1.27;;;1.00;;
12222;SDS011;6174;49.058;8.524;2024-02-26T06:32:13;1.37;;;1.27;;
12222;SDS011;6174;49.058;8.524;2024-02-26T06:34:41;1.40;;;1.30;;
12222;SDS011;6174;49.058;8.524;2024-02-26T06:37:08;1.70;;;1.30;;
12222;SDS011;6174;49.058;8.524;2024-02-26T06:39:34;1.27;;;1.10;;
12222;SDS011;6174;49.058;8.524;2024-02-26T06:42:01;1.20;;;1.00;;
12222;SDS011;6174;49.058;8.524;2024-02-26T06:44:28;1.27;;;1.10;;
12222;SDS011;6174;49.058;8.524;2024-02-26T06:46:57;1.10;;;1.10;;
12222;SDS011;6174;49.058;8.524;2024-02-26T06:49:24;1.30;;;1.20;;
12222;SDS011;6174;49.058;8.524;2024-02-26T06:51:52;1.23;;;1.13;;
12222;SDS011;6174;49.058;8.524;2024-02-26T06:54:20;1.10;;;1.10;;
12222;SDS011;6174;49.058;8.524;2024-02-26T06:56:46;1.00;;;1.00;;
12222;SDS011;6174;49.058;8.524;2024-02-26T06:59:13;1.20;;;1.20;;
12222;SDS011;6174;49.058;8.524;2024-02-26T07:01:40;1.40;;;1.30;;
12222;SDS011;6174;49.058;8.524;2024-02-26T07:04:07;1.60;;;1.50;;
12222;SDS011;6174;49.058;8.524;2024-02-26T07:06:35;2.40;;;1.30;;
12222;SDS011;6174;49.058;8.524;2024-02-26T07:09:04;1.50;;;1.40;;
12222;SDS011;6174;49.058;8.524;2024-02-26T07:11:30;1.93;;;1.57;;
12222;SDS011;6174;49.058;8.524;2024-02-26T07:13:57;1.63;;;1.53;;
12222;SDS011;6174;49.058;8.524;2024-02-26T07:16:25;2.50;;;1.47;;
12222;SDS011;6174;49.058;8.524;2024-02-26T07:18:52;1.70;;;1.60;;
12222;SDS011;6174;49.058;8.524;2024-02-26T07:21:19;1.93;;;1.70;;
12222;SDS011;6174;49.058;8.524;2024-02-26T07:23:46;2.10;;;1.90;;
12222;SDS011;6174;49.058;8.524;2024-02-26T07:26:14;2.13;;;1.93;;
12222;SDS011;6174;49.058;8.524;2024-02-26T07:28:42;1.90;;;1.80;;
12222;SDS011;6174;49.058;8.524;2024-02-26T07:31:09;2.10;;;2.00;;
12222;SDS011;6174;49.058;8.524;2024-02-26T07:33:35;1.90;;;1.80;;
12222;SDS011;6174;49.058;8.524;2024-02-26T07:36:02;1.80;;;1.70;;
12222;SDS011;6174;49.058;8.524;2024-02-26T07:38:29;2.27;;;1.70;;
12222;SDS011;6174;49.058;8.524;2024-02-26T07:40:56;2.00;;;1.90;;
12222;SDS011;6174;49.058;8.524;2024-02-26T07:43:24;2.17;;;2.00;;
12222;SDS011;6174;49.058;8.524;2024-02-26T07:45:51;2.23;;;1.70;;
12222;SDS011;6174;49.058;8.524;2024-02-26T07:48:18;2.07;;;1.70;;
12222;SDS011;6174;49.058;8.524;2024-02-26T07:50:44;2.30;;;1.90;;
12222;SDS011;6174;49.058;8.524;2024-02-26T07:53:11;3.50;;;2.10;;
12222;SDS011;6174;49.058;8.524;2024-02-26T07:55:39;1.93;;;1.83;;
12222;SDS011;6174;49.058;8.524;2024-02-26T07:58:06;1.90;;;1.70;;
12222;SDS011;6174;49.058;8.524;2024-02-26T08:00:34;1.80;;;1.70;;
12222;SDS011;6174;49.058;8.524;2024-02-26T08:03:01;2.37;;;1.77;;
12222;SDS011;6174;49.058;8.524;2024-02-26T08:05:28;1.73;;;1.63;;
12222;SDS011;6174;49.058;8.524;2024-02-26T08:07:54;1.97;;;1.77;;
12222;SDS011;6174;49.058;8.524;2024-02-26T08:10:21;3.10;;;2.03;;
12222;SDS011;6174;49.058;8.524;2024-02-26T08:12:48;2.20;;;2.00;;
12222;SDS011;6174;49.058;8.524;2024-02-26T08:15:15;2.47;;;2.07;;
12222;SDS011;6174;49.058;8.524;2024-02-26T08:17:45;2.33;;;2.10;;
12222;SDS011;6174;49.058;8.524;2024-02-26T08:20:12;2.67;;;2.00;;
12222;SDS011;6174;49.058;8.524;2024-02-26T08:22:39;1.90;;;1.80;;
12222;SDS011;6174;49.058;8.524;2024-02-26T08:25:06;1.67;;;1.57;;
12222;SDS011;6174;49.058;8.524;2024-02-26T08:27:34;1.70;;;1.60;;
12222;SDS011;6174;49.058;8.524;2024-02-26T08:30:01;1.70;;;1.60;;
12222;SDS011;6174;49.058;8.524;2024-02-26T08:32:29;1.97;;;1.80;;
12222;SDS011;6174;49.058;8.524;2024-02-26T08:34:57;1.80;;;1.70;;
12222;SDS011;6174;49.058;8.524;2024-02-26T08:37:24;1.93;;;1.83;;
12222;SDS011;6174;49.058;8.524;2024-02-26T08:39:50;1.73;;;1.63;;
12222;SDS011;6174;49.058;8.524;2024-02-26T08:42:17;1.90;;;1.80;;
12222;SDS011;6174;49.058;8.524;2024-02-26T08:44:44;2.33;;;1.87;;
12222;SDS011;6174;49.058;8.524;2024-02-26T08:47:11;1.53;;;1.43;;
12222;SDS011;6174;49.058;8.524;2024-02-26T08:49:41;2.67;;;1.53;;
12222;SDS011;6174;49.058;8.524;2024-02-26T08:52:10;1.57;;;1.47;;
12222;SDS011;6174;49.058;8.524;2024-02-26T08:54:36;1.47;;;1.37;;
12222;SDS011;6174;49.058;8.524;2024-02-26T08:57:03;2.50;;;2.20;;
12222;SDS011;6174;49.058;8.524;2024-02-26T08:59:30;1.60;;;1.50;;
12222;SDS011;6174;49.058;8.524;2024-02-26T09:01:57;1.47;;;1.37;;
12222;SDS011;6174;49.058;8.524;2024-02-26T09:04:25;1.53;;;1.43;;
12222;SDS011;6174;49.058;8.524;2024-02-26T09:06:52;1.13;;;1.13;;
12222;SDS011;6174;49.058;8.524;2024-02-26T09:09:20;1.57;;;1.47;;
12222;SDS011;6174;49.058;8.524;2024-02-26T09:11:50;1.80;;;1.30;;
12222;SDS011;6174;49.058;8.524;2024-02-26T09:14:17;1.57;;;1.47;;
12222;SDS011;6174;49.058;8.524;2024-02-26T09:16:43;1.50;;;1.30;;
12222;SDS011;6174;49.058;8.524;2024-02-26T09:19:10;1.50;;;1.40;;
12222;SDS011;6174;49.058;8.524;2024-02-26T09:21:41;1.70;;;1.60;;
12222;SDS011;6174;49.058;8.524;2024-02-26T09:24:08;1.73;;;1.43;;
12222;SDS011;6174;49.058;8.524;2024-02-26T09:26:36;1.50;;;1.20;;
12222;SDS011;6174;49.058;8.524;2024-02-26T09:29:03;1.87;;;1.33;;
12222;SDS011;6174;49.058;8.524;2024-02-26T09:31:30;1.60;;;1.50;;
12222;SDS011;6174;49.058;8.524;2024-02-26T09:33:59;2.07;;;1.50;;
12222;SDS011;6174;49.058;8.524;2024-02-26T09:36:26;3.97;;;3.27;;
12222;SDS011;6174;49.058;8.524;2024-02-26T09:38:52;4.30;;;2.80;;
12222;SDS011;6174;49.058;8.524;2024-02-26T09:41:19;4.23;;;3.30;;
12222;SDS011;6174;49.058;8.524;2024-02-26T09:43:48;4.57;;;3.37;;
12222;SDS011;6174;49.058;8.524;2024-02-26T09:46:17;7.80;;;4.77;;
12222;SDS011;6174;49.058;8.524;2024-02-26T09:48:45;5.60;;;3.77;;
12222;SDS011;6174;49.058;8.524;2024-02-26T09:51:13;9.30;;;5.70;;
12222;SDS011;6174;49.058;8.524;2024-02-26T09:53:41;6.47;;;4.23;;
12222;SDS011;6174;49.058;8.524;2024-02-26T09:56:11;8.20;;;5.10;;
12222;SDS011;6174;49.058;8.524;2024-02-26T09:58:37;2.97;;;2.60;;
12222;SDS011;6174;49.058;8.524;2024-02-26T10:01:07;3.13;;;2.07;;
12222;SDS011;6174;49.058;8.524;2024-02-26T10:03:41;3.57;;;2.47;;
12222;SDS011;6174;49.058;8.524;2024-02-26T10:06:09;1.50;;;1.40;;
12222;SDS011;6174;49.058;8.524;2024-02-26T10:08:37;1.40;;;1.30;;
12222;SDS011;6174;49.058;8.524;2024-02-26T10:11:04;2.40;;;1.87;;
12222;SDS011;6174;49.058;8.524;2024-02-26T10:13:33;1.80;;;1.70;;
12222;SDS011;6174;49.058;8.524;2024-02-26T10:16:01;1.83;;;1.73;;
12222;SDS011;6174;49.058;8.524;2024-02-26T10:21:15;1.67;;;1.57;;
12222;SDS011;6174;49.058;8.524;2024-02-26T10:23:43;1.80;;;1.70;;
12222;SDS011;6174;49.058;8.524;2024-02-26T10:26:11;2.07;;;1.60;;
12222;SDS011;6174;49.058;8.524;2024-02-26T10:28:38;1.80;;;1.70;;
12222;SDS011;6174;49.058;8.524;2024-02-26T10:31:06;3.00;;;2.00;;
12222;SDS011;6174;49.058;8.524;2024-02-26T10:33:33;1.77;;;1.67;;
12222;SDS011;6174;49.058;8.524;2024-02-26T10:36:02;2.27;;;2.07;;
12222;SDS011;6174;49.058;8.524;2024-02-26T10:38:30;1.70;;;1.60;;
12222;SDS011;6174;49.058;8.524;2024-02-26T10:40:58;1.93;;;1.57;;
12222;SDS011;6174;49.058;8.524;2024-02-26T10:43:25;1.97;;;1.73;;
12222;SDS011;6174;49.058;8.524;2024-02-26T10:45:52;1.73;;;1.63;;
12222;SDS011;6174;49.058;8.524;2024-02-26T10:48:20;1.90;;;1.70;;
12222;SDS011;6174;49.058;8.524;2024-02-26T10:50:47;2.23;;;1.80;;
12222;SDS011;6174;49.058;8.524;2024-02-26T10:53:17;3.17;;;1.67;;
12222;SDS011;6174;49.058;8.524;2024-02-26T10:55:48;1.60;;;1.50;;
12222;SDS011;6174;49.058;8.524;2024-02-26T10:58:17;1.70;;;1.50;;
12222;SDS011;6174;49.058;8.524;2024-02-26T11:00:45;1.93;;;1.60;;
12222;SDS011;6174;49.058;8.524;2024-02-26T11:03:13;1.87;;;1.77;;
12222;SDS011;6174;49.058;8.524;2024-02-26T11:05:42;2.00;;;1.80;;
12222;SDS011;6174;49.058;8.524;2024-02-26T11:08:10;1.93;;;1.83;;
12222;SDS011;6174;49.058;8.524;2024-02-26T11:10:39;1.97;;;1.87;;
12222;SDS011;6174;49.058;8.524;2024-02-26T11:13:07;2.33;;;1.77;;
12222;SDS011;6174;49.058;8.524;2024-02-26T11:15:37;2.07;;;1.90;;
12222;SDS011;6174;49.058;8.524;2024-02-26T11:18:05;1.87;;;1.77;;
12222;SDS011;6174;49.058;8.524;2024-02-26T11:20:34;1.67;;;1.57;;
12222;SDS011;6174;49.058;8.524;2024-02-26T11:23:04;3.00;;;1.50;;
12222;SDS011;6174;49.058;8.524;2024-02-26T11:25:33;2.03;;;1.70;;
12222;SDS011;6174;49.058;8.524;2024-02-26T11:28:04;1.70;;;1.60;;
12222;SDS011;6174;49.058;8.524;2024-02-26T11:30:35;1.67;;;1.57;;
12222;SDS011;6174;49.058;8.524;2024-02-26T11:33:06;2.00;;;1.67;;
12222;SDS011;6174;49.058;8.524;2024-02-26T11:35:34;1.90;;;1.80;;
12222;SDS011;6174;49.058;8.524;2024-02-26T11:38:02;1.80;;;1.57;;
12222;SDS011;6174;49.058;8.524;2024-02-26T11:40:32;1.43;;;1.33;;
12222;SDS011;6174;49.058;8.524;2024-02-26T11:42:59;1.63;;;1.53;;
12222;SDS011;6174;49.058;8.524;2024-02-26T11:45:48;1.40;;;1.30;;
12222;SDS011;6174;49.058;8.524;2024-02-26T11:48:19;1.50;;;1.40;;
12222;SDS011;6174;49.058;8.524;2024-02-26T11:50:47;1.20;;;1.10;;
12222;SDS011;6174;49.058;8.524;2024-02-26T11:53:25;1.10;;;1.10;;
12222;SDS011;6174;49.058;8.524;2024-02-26T11:58:48;1.27;;;1.20;;
12222;SDS011;6174;49.058;8.524;2024-02-26T12:04:06;1.60;;;1.50;;
12222;SDS011;6174;49.058;8.524;2024-02-26T12:06:43;1.43;;;1.30;;
12222;SDS011;6174;49.058;8.524;2024-02-26T12:09:12;1.23;;;1.10;;
12222;SDS011;6174;49.058;8.524;2024-02-26T12:11:40;1.50;;;1.10;;
12222;SDS011;6174;49.058;8.524;2024-02-26T12:14:08;1.23;;;1.13;;
12222;SDS011;6174;49.058;8.524;2024-02-26T12:16:36;1.43;;;1.00;;
12222;SDS011;6174;49.058;8.524;2024-02-26T12:19:06;0.80;;;0.80;;
12222;SDS011;6174;49.058;8.524;2024-02-26T12:21:33;0.60;;;0.60;;
12222;SDS011;6174;49.058;8.524;2024-02-26T12:24:09;0.50;;;0.50;;
12222;SDS011;6174;49.058;8.524;2024-02-26T12:26:37;0.67;;;0.67;;
12222;SDS011;6174;49.058;8.524;2024-02-26T12:29:04;0.60;;;0.60;;
12222;SDS011;6174;49.058;8.524;2024-02-26T12:31:31;0.70;;;0.60;;
12222;SDS011;6174;49.058;8.524;2024-02-26T12:33:58;0.50;;;0.50;;
12222;SDS011;6174;49.058;8.524;2024-02-26T12:36:27;0.60;;;0.60;;
12222;SDS011;6174;49.058;8.524;2024-02-26T12:38:54;0.50;;;0.50;;
12222;SDS011;6174;49.058;8.524;2024-02-26T12:41:21;0.40;;;0.40;;
12222;SDS011;6174;49.058;8.524;2024-02-26T12:43:49;0.47;;;0.30;;
12222;SDS011;6174;49.058;8.524;2024-02-26T12:46:15;0.83;;;0.50;;
12222;SDS011;6174;49.058;8.524;2024-02-26T12:48:42;0.63;;;0.63;;
12222;SDS011;6174;49.058;8.524;2024-02-26T12:51:10;0.60;;;0.60;;
12222;SDS011;6174;49.058;8.524;2024-02-26T12:53:39;0.30;;;0.30;;
12222;SDS011;6174;49.058;8.524;2024-02-26T12:56:06;0.83;;;0.50;;
12222;SDS011;6174;49.058;8.524;2024-02-26T12:58:35;0.50;;;0.50;;
12222;SDS011;6174;49.058;8.524;2024-02-26T13:01:03;0.80;;;0.50;;
12222;SDS011;6174;49.058;8.524;2024-02-26T13:03:32;0.93;;;0.60;;
12222;SDS011;6174;49.058;8.524;2024-02-26T13:06:00;0.70;;;0.70;;
12222;SDS011;6174;49.058;8.524;2024-02-26T13:08:29;0.50;;;0.50;;
12222;SDS011;6174;49.058;8.524;2024-02-26T13:10:59;0.70;;;0.70;;
12222;SDS011;6174;49.058;8.524;2024-02-26T13:13:26;2.50;;;0.70;;
12222;SDS011;6174;49.058;8.524;2024-02-26T13:16:00;2.07;;;1.70;;
12222;SDS011;6174;49.058;8.524;2024-02-26T13:18:28;4.10;;;3.77;;
12222;SDS011;6174;49.058;8.524;2024-02-26T13:21:05;1.90;;;1.80;;
12222;SDS011;6174;49.058;8.524;2024-02-26T13:23:33;1.70;;;1.10;;
12222;SDS011;6174;49.058;8.524;2024-02-26T13:26:01;7.80;;;6.17;;
12222;SDS011;6174;49.058;8.524;2024-02-26T13:28:28;0.90;;;0.90;;
12222;SDS011;6174;49.058;8.524;2024-02-26T13:30:55;1.23;;;1.10;;
12222;SDS011;6174;49.058;8.524;2024-02-26T13:33:24;3.17;;;2.40;;
12222;SDS011;6174;49.058;8.524;2024-02-26T13:35:52;1.57;;;1.47;;
12222;SDS011;6174;49.058;8.524;2024-02-26T13:38:19;1.30;;;1.20;;
12222;SDS011;6174;49.058;8.524;2024-02-26T13:40:47;1.90;;;1.80;;
12222;SDS011;6174;49.058;8.524;2024-02-26T13:43:15;1.70;;;1.60;;
12222;SDS011;6174;49.058;8.524;2024-02-26T13:45:42;1.17;;;1.10;;
12222;SDS011;6174;49.058;8.524;2024-02-26T13:48:09;1.37;;;1.23;;
12222;SDS011;6174;49.058;8.524;2024-02-26T13:50:37;1.20;;;1.10;;
12222;SDS011;6174;49.058;8.524;2024-02-26T13:53:04;1.57;;;0.87;;
12222;SDS011;6174;49.058;8.524;2024-02-26T13:55:31;1.10;;;1.10;;
12222;SDS011;6174;49.058;8.524;2024-02-26T13:57:58;1.37;;;1.27;;
12222;SDS011;6174;49.058;8.524;2024-02-26T14:00:28;2.23;;;1.80;;
12222;SDS011;6174;49.058;8.524;2024-02-26T14:02:57;1.13;;;1.00;;
12222;SDS011;6174;49.058;8.524;2024-02-26T14:05:24;1.83;;;1.33;;
12222;SDS011;6174;49.058;8.524;2024-02-26T14:07:51;4.10;;;2.90;;
12222;SDS011;6174;49.058;8.524;2024-02-26T14:10:18;3.43;;;2.50;;
12222;SDS011;6174;49.058;8.524;2024-02-26T14:12:45;2.17;;;1.77;;
12222;SDS011;6174;49.058;8.524;2024-02-26T14:15:12;1.13;;;1.10;;
12222;SDS011;6174;49.058;8.524;2024-02-26T14:17:40;1.50;;;1.40;;
12222;SDS011;6174;49.058;8.524;2024-02-26T14:20:08;2.37;;;1.70;;
12222;SDS011;6174;49.058;8.524;2024-02-26T14:22:35;2.57;;;2.37;;
12222;SDS011;6174;49.058;8.524;2024-02-26T14:25:02;2.40;;;1.23;;
12222;SDS011;6174;49.058;8.524;2024-02-26T14:27:29;2.40;;;2.20;;
12222;SDS011;6174;49.058;8.524;2024-02-26T14:29:56;2.07;;;1.90;;
12222;SDS011;6174;49.058;8.524;2024-02-26T14:32:23;2.63;;;1.77;;
12222;SDS011;6174;49.058;8.524;2024-02-26T14:34:51;1.17;;;1.10;;
12222;SDS011;6174;49.058;8.524;2024-02-26T14:37:17;1.27;;;1.17;;
12222;SDS011;6174;49.058;8.524;2024-02-26T14:39:44;0.90;;;0.90;;
12222;SDS011;6174;49.058;8.524;2024-02-26T14:42:12;0.63;;;0.63;;
12222;SDS011;6174;49.058;8.524;2024-02-26T14:44:42;0.90;;;0.90;;
12222;SDS011;6174;49.058;8.524;2024-02-26T14:47:09;1.00;;;1.00;;
12222;SDS011;6174;49.058;8.524;2024-02-26T14:49:36;1.00;;;0.90;;
12222;SDS011;6174;49.058;8.524;2024-02-26T14:52:04;1.90;;;1.10;;
12222;SDS011;6174;49.058;8.524;2024-02-26T14:54:31;1.40;;;1.30;;
12222;SDS011;6174;49.058;8.524;2024-02-26T14:57:02;2.40;;;1.07;;
12222;SDS011;6174;49.058;8.524;2024-02-26T14:59:29;1.07;;;1.03;;
12222;SDS011;6174;49.058;8.524;2024-02-26T15:01:56;1.40;;;1.17;;
12222;SDS011;6174;49.058;8.524;2024-02-26T15:04:24;1.10;;;1.00;;
12222;SDS011;6174;49.058;8.524;2024-02-26T15:06:51;1.23;;;1.00;;
12222;SDS011;6174;49.058;8.524;2024-02-26T15:09:19;1.00;;;1.00;;
12222;SDS011;6174;49.058;8.524;2024-02-26T15:11:47;1.80;;;1.20;;
12222;SDS011;6174;49.058;8.524;2024-02-26T15:14:13;1.00;;;1.00;;
12222;SDS011;6174;49.058;8.524;2024-02-26T15:16:40;0.90;;;0.90;;
12222;SDS011;6174;49.058;8.524;2024-02-26T15:19:07;0.97;;;0.90;;
12222;SDS011;6174;49.058;8.524;2024-02-26T15:21:34;0.90;;;0.90;;
12222;SDS011;6174;49.058;8.524;2024-02-26T15:24:00;0.87;;;0.83;;
12222;SDS011;6174;49.058;8.524;2024-02-26T15:26:29;1.33;;;0.90;;
12222;SDS011;6174;49.058;8.524;2024-02-26T15:28:56;1.47;;;0.80;;
12222;SDS011;6174;49.058;8.524;2024-02-26T15:31:22;0.80;;;0.80;;
12222;SDS011;6174;49.058;8.524;2024-02-26T15:33:49;0.70;;;0.60;;
12222;SDS011;6174;49.058;8.524;2024-02-26T15:36:16;0.90;;;0.90;;
12222;SDS011;6174;49.058;8.524;2024-02-26T15:38:43;0.70;;;0.70;;
12222;SDS011;6174;49.058;8.524;2024-02-26T15:41:12;2.23;;;0.90;;
12222;SDS011;6174;49.058;8.524;2024-02-26T15:43:40;0.90;;;0.90;;
12222;SDS011;6174;49.058;8.524;2024-02-26T15:46:07;0.90;;;0.90;;
12222;SDS011;6174;49.058;8.524;2024-02-26T15:48:35;1.07;;;0.87;;
12222;SDS011;6174;49.058;8.524;2024-02-26T15:51:03;1.00;;;1.00;;
12222;SDS011;6174;49.058;8.524;2024-02-26T15:53:30;1.03;;;0.93;;
12222;SDS011;6174;49.058;8.524;2024-02-26T15:55:57;1.03;;;0.90;;
12222;SDS011;6174;49.058;8.524;2024-02-26T15:58:24;1.00;;;0.90;;
12222;SDS011;6174;49.058;8.524;2024-02-26T16:00:52;1.50;;;1.30;;
12222;SDS011;6174;49.058;8.524;2024-02-26T16:03:19;2.07;;;1.30;;
12222;SDS011;6174;49.058;8.524;2024-02-26T16:05:46;1.40;;;1.30;;
12222;SDS011;6174;49.058;8.524;2024-02-26T16:08:14;1.33;;;1.23;;
12222;SDS011;6174;49.058;8.524;2024-02-26T16:10:45;1.10;;;1.10;;
12222;SDS011;6174;49.058;8.524;2024-02-26T16:13:12;2.50;;;1.60;;
12222;SDS011;6174;49.058;8.524;2024-02-26T16:15:40;2.03;;;1.80;;
12222;SDS011;6174;49.058;8.524;2024-02-26T16:18:12;1.10;;;1.10;;
12222;SDS011;6174;49.058;8.524;2024-02-26T16:20:41;1.10;;;1.00;;
12222;SDS011;6174;49.058;8.524;2024-02-26T16:23:07;1.27;;;1.17;;
12222;SDS011;6174;49.058;8.524;2024-02-26T16:25:35;1.27;;;0.97;;
12222;SDS011;6174;49.058;8.524;2024-02-26T16:28:02;1.17;;;1.07;;
12222;SDS011;6174;49.058;8.524;2024-02-26T16:30:29;1.10;;;1.00;;
12222;SDS011;6174;49.058;8.524;2024-02-26T16:32:57;1.10;;;1.00;;
12222;SDS011;6174;49.058;8.524;2024-02-26T16:35:25;1.00;;;0.90;;
12222;SDS011;6174;49.058;8.524;2024-02-26T16:37:52;0.97;;;0.93;;
12222;SDS011;6174;49.058;8.524;2024-02-26T16:40:19;1.23;;;1.10;;
12222;SDS011;6174;49.058;8.524;2024-02-26T16:42:46;3.23;;;1.60;;
12222;SDS011;6174;49.058;8.524;2024-02-26T16:45:12;1.13;;;1.03;;
12222;SDS011;6174;49.058;8.524;2024-02-26T16:47:39;1.13;;;0.80;;
12222;SDS011;6174;49.058;8.524;2024-02-26T16:50:07;1.73;;;1.00;;
12222;SDS011;6174;49.058;8.524;2024-02-26T16:52:36;1.23;;;0.90;;
12222;SDS011;6174;49.058;8.524;2024-02-26T16:55:03;2.13;;;0.77;;
12222;SDS011;6174;49.058;8.524;2024-02-26T16:57:30;2.17;;;1.00;;
12222;SDS011;6174;49.058;8.524;2024-02-26T16:59:57;2.00;;;1.03;;
12222;SDS011;6174;49.058;8.524;2024-02-26T17:02:24;2.60;;;1.40;;
12222;SDS011;6174;49.058;8.524;2024-02-26T17:04:51;2.57;;;2.10;;
12222;SDS011;6174;49.058;8.524;2024-02-26T17:07:17;1.80;;;1.67;;
12222;SDS011;6174;49.058;8.524;2024-02-26T17:09:46;1.20;;;1.10;;
12222;SDS011;6174;49.058;8.524;2024-02-26T17:12:12;1.10;;;1.00;;
12222;SDS011;6174;49.058;8.524;2024-02-26T17:14:41;1.03;;;1.00;;
12222;SDS011;6174;49.058;8.524;2024-02-26T17:17:13;1.30;;;1.20;;
12222;SDS011;6174;49.058;8.524;2024-02-26T17:19:39;1.50;;;1.30;;
12222;SDS011;6174;49.058;8.524;2024-02-26T17:22:06;1.10;;;1.10;;
12222;SDS011;6174;49.058;8.524;2024-02-26T17:24:36;1.43;;;1.33;;
12222;SDS011;6174;49.058;8.524;2024-02-26T17:27:04;1.37;;;1.27;;
12222;SDS011;6174;49.058;8.524;2024-02-26T17:29:31;1.40;;;1.30;;
12222;SDS011;6174;49.058;8.524;2024-02-26T17:31:59;1.23;;;1.17;;
12222;SDS011;6174;49.058;8.524;2024-02-26T17:34:26;1.87;;;1.70;;
12222;SDS011;6174;49.058;8.524;2024-02-26T17:36:53;1.83;;;1.70;;
12222;SDS011;6174;49.058;8.524;2024-02-26T17:39:21;2.10;;;1.90;;
12222;SDS011;6174;49.058;8.524;2024-02-26T17:41:48;2.77;;;1.70;;
12222;SDS011;6174;49.058;8.524;2024-02-26T17:44:16;2.20;;;2.10;;
12222;SDS011;6174;49.058;8.524;2024-02-26T17:46:43;2.33;;;2.13;;
12222;SDS011;6174;49.058;8.524;2024-02-26T17:49:09;2.73;;;2.00;;
12222;SDS011;6174;49.058;8.524;2024-02-26T17:51:36;2.60;;;2.13;;
12222;SDS011;6174;49.058;8.524;2024-02-26T17:54:03;4.03;;;2.30;;
12222;SDS011;6174;49.058;8.524;2024-02-26T17:56:30;2.33;;;2.13;;
12222;SDS011;6174;49.058;8.524;2024-02-26T17:58:56;2.70;;;2.50;;
12222;SDS011;6174;49.058;8.524;2024-02-26T18:01:24;2.47;;;2.20;;
12222;SDS011;6174;49.058;8.524;2024-02-26T18:03:52;2.40;;;2.20;;
12222;SDS011;6174;49.058;8.524;2024-02-26T18:06:19;3.03;;;2.60;;
12222;SDS011;6174;49.058;8.524;2024-02-26T18:08:46;3.10;;;2.57;;
12222;SDS011;6174;49.058;8.524;2024-02-26T18:11:13;2.73;;;2.40;;
12222;SDS011;6174;49.058;8.524;2024-02-26T18:13:39;2.47;;;2.20;;
12222;SDS011;6174;49.058;8.524;2024-02-26T18:16:09;3.80;;;2.70;;
12222;SDS011;6174;49.058;8.524;2024-02-26T18:18:38;2.83;;;2.63;;
12222;SDS011;6174;49.058;8.524;2024-02-26T18:21:04;2.70;;;2.50;;
12222;SDS011;6174;49.058;8.524;2024-02-26T18:23:31;3.17;;;2.20;;
12222;SDS011;6174;49.058;8.524;2024-02-26T18:25:58;2.73;;;2.30;;
12222;SDS011;6174;49.058;8.524;2024-02-26T18:28:25;3.27;;;2.50;;
12222;SDS011;6174;49.058;8.524;2024-02-26T18:30:51;3.03;;;2.80;;
12222;SDS011;6174;49.058;8.524;2024-02-26T18:33:18;4.20;;;3.00;;
12222;SDS011;6174;49.058;8.524;2024-02-26T18:35:46;3.33;;;3.03;;
12222;SDS011;6174;49.058;8.524;2024-02-26T18:38:13;4.10;;;3.20;;
12222;SDS011;6174;49.058;8.524;2024-02-26T18:40:40;3.40;;;3.10;;
12222;SDS011;6174;49.058;8.524;2024-02-26T18:43:06;5.03;;;3.43;;
12222;SDS011;6174;49.058;8.524;2024-02-26T18:45:33;4.67;;;3.20;;
12222;SDS011;6174;49.058;8.524;2024-02-26T18:48:00;4.83;;;3.73;;
12222;SDS011;6174;49.058;8.524;2024-02-26T18:50:28;3.90;;;3.50;;
12222;SDS011;6174;49.058;8.524;2024-02-26T18:52:57;3.67;;;3.37;;
12222;SDS011;6174;49.058;8.524;2024-02-26T18:55:26;4.37;;;3.53;;
12222;SDS011;6174;49.058;8.524;2024-02-26T18:57:53;4.00;;;3.57;;
12222;SDS011;6174;49.058;8.524;2024-02-26T19:00:20;3.50;;;3.20;;
12222;SDS011;6174;49.058;8.524;2024-02-26T19:02:47;4.77;;;3.63;;
12222;SDS011;6174;49.058;8.524;2024-02-26T19:05:14;4.33;;;3.90;;
12222;SDS011;6174;49.058;8.524;2024-02-26T19:07:42;3.73;;;3.43;;
12222;SDS011;6174;49.058;8.524;2024-02-26T19:10:10;4.10;;;3.70;;
12222;SDS011;6174;49.058;8.524;2024-02-26T19:12:37;4.40;;;4.00;;
12222;SDS011;6174;49.058;8.524;2024-02-26T19:15:04;4.37;;;4.00;;
12222;SDS011;6174;49.058;8.524;2024-02-26T19:17:32;4.80;;;4.30;;
12222;SDS011;6174;49.058;8.524;2024-02-26T19:19:59;4.40;;;4.00;;
12222;SDS011;6174;49.058;8.524;2024-02-26T19:22:26;4.90;;;4.40;;
12222;SDS011;6174;49.058;8.524;2024-02-26T19:24:53;5.27;;;4.50;;
12222;SDS011;6174;49.058;8.524;2024-02-26T19:27:21;4.53;;;4.13;;
12222;SDS011;6174;49.058;8.524;2024-02-26T19:29:47;4.40;;;4.00;;
12222;SDS011;6174;49.058;8.524;2024-02-26T19:32:14;5.00;;;4.50;;
12222;SDS011;6174;49.058;8.524;2024-02-26T19:34:41;4.87;;;4.27;;
12222;SDS011;6174;49.058;8.524;2024-02-26T19:37:08;4.67;;;4.27;;
12222;SDS011;6174;49.058;8.524;2024-02-26T19:39:34;4.77;;;3.97;;
12222;SDS011;6174;49.058;8.524;2024-02-26T19:42:01;4.57;;;4.20;;
12222;SDS011;6174;49.058;8.524;2024-02-26T19:44:29;4.30;;;3.90;;
12222;SDS011;6174;49.058;8.524;2024-02-26T19:46:56;4.40;;;4.00;;
12222;SDS011;6174;49.058;8.524;2024-02-26T19:49:23;4.70;;;4.20;;
12222;SDS011;6174;49.058;8.524;2024-02-26T19:51:50;4.50;;;4.10;;
12222;SDS011;6174;49.058;8.524;2024-02-26T19:54:15;4.53;;;4.00;;
12222;SDS011;6174;49.058;8.524;2024-02-26T19:56:42;5.33;;;4.50;;
12222;SDS011;6174;49.058;8.524;2024-02-26T19:59:11;4.73;;;3.90;;
12222;SDS011;6174;49.058;8.524;2024-02-26T20:01:40;4.47;;;3.63;;
12222;SDS011;6174;49.058;8.524;2024-02-26T20:04:07;4.20;;;3.80;;
12222;SDS011;6174;49.058;8.524;2024-02-26T20:06:37;4.33;;;3.73;;
12222;SDS011;6174;49.058;8.524;2024-02-26T20:09:04;3.73;;;3.40;;
12222;SDS011;6174;49.058;8.524;2024-02-26T20:11:32;4.10;;;3.67;;
12222;SDS011;6174;49.058;8.524;2024-02-26T20:13:59;4.20;;;3.80;;
12222;SDS011;6174;49.058;8.524;2024-02-26T20:16:26;3.83;;;3.50;;
12222;SDS011;6174;49.058;8.524;2024-02-26T20:18:54;4.80;;;3.67;;
12222;SDS011;6174;49.058;8.524;2024-02-26T20:21:21;3.63;;;3.30;;
12222;SDS011;6174;49.058;8.524;2024-02-26T20:23:48;4.17;;;3.77;;
12222;SDS011;6174;49.058;8.524;2024-02-26T20:26:15;3.50;;;3.20;;
12222;SDS011;6174;49.058;8.524;2024-02-26T20:28:41;3.97;;;3.43;;
12222;SDS011;6174;49.058;8.524;2024-02-26T20:31:08;5.97;;;3.50;;
12222;SDS011;6174;49.058;8.524;2024-02-26T20:33:35;3.33;;;3.03;;
12222;SDS011;6174;49.058;8.524;2024-02-26T20:36:05;4.97;;;3.30;;
12222;SDS011;6174;49.058;8.524;2024-02-26T20:38:32;3.57;;;3.27;;
12222;SDS011;6174;49.058;8.524;2024-02-26T20:40:59;3.40;;;3.10;;
12222;SDS011;6174;49.058;8.524;2024-02-26T20:43:26;3.07;;;2.87;;
12222;SDS011;6174;49.058;8.524;2024-02-26T20:45:52;3.40;;;3.10;;
12222;SDS011;6174;49.058;8.524;2024-02-26T20:48:19;3.40;;;2.97;;
12222;SDS011;6174;49.058;8.524;2024-02-26T20:50:46;3.27;;;2.97;;
12222;SDS011;6174;49.058;8.524;2024-02-26T20:53:14;3.17;;;2.87;;
12222;SDS011;6174;49.058;8.524;2024-02-26T20:55:41;3.13;;;2.83;;
12222;SDS011;6174;49.058;8.524;2024-02-26T20:58:08;3.50;;;3.20;;
12222;SDS011;6174;49.058;8.524;2024-02-26T21:00:35;4.30;;;3.20;;
12222;SDS011;6174;49.058;8.524;2024-02-26T21:03:03;3.60;;;3.10;;
12222;SDS011;6174;49.058;8.524;2024-02-26T21:05:33;3.27;;;2.97;;
12222;SDS011;6174;49.058;8.524;2024-02-26T21:08:01;3.97;;;3.13;;
12222;SDS011;6174;49.058;8.524;2024-02-26T21:10:29;3.37;;;3.07;;